Time;durP1;ratioP1;P1;durP2;ratioP2;P2;SDS_P1;SDS_P2;PMS_P1;PMS_P2;Temp;Humidity;BMP_temperature;BMP_pressure;BME280_temperature;BME280_humidity;BME280_pressure;Samples;Min_cycle;Max_cycle;Signal;HPM_P1;HPM_P2
2022/01/04 00:00:14;;;;;;;;;;;205.00;2252.80;;;;;;5096459;28;20095;-75
2022/01/04 00:02:41;;;;;;;57.85;33.40;;;205.00;2252.80;;;;;;5077152;28;19904;-75
2022/01/04 00:05:07;;;;;;;76.80;42.90;;;204.90;2252.80;;;;;;5077639;28;20028;-75
2022/01/04 00:07:33;;;;;;;76.40;44.33;;;205.10;2252.80;;;;;;5095649;28;20099;-74
2022/01/04 00:09:59;;;;;;;;;;;205.00;2252.80;;;;;;5094521;28;20114;-75
2022/01/04 00:15:09;;;;;;;86.00;47.70;;;205.20;2252.80;;;;;;5073814;28;20030;-75
2022/01/04 00:17:35;;;;;;;;;;;204.90;2252.80;;;;;;5075147;28;20036;-76
2022/01/04 00:20:02;;;;;;;79.53;45.67;;;180.10;2252.80;;;;;;5074664;28;19905;-76
2022/01/04 00:22:28;;;;;;;77.65;46.13;;;180.10;2252.80;;;;;;5063656;28;20024;-75
2022/01/04 00:24:53;;;;;;;;;;;180.00;2252.80;;;;;;5075300;28;20100;-75
2022/01/04 00:27:19;;;;;;;81.97;45.42;;;179.90;2252.80;;;;;;5076711;28;19916;-76
2022/01/04 00:29:45;;;;;;;;;;;180.00;2252.80;;;;;;5087123;28;20078;-77
2022/01/04 00:32:11;;;;;;;77.55;44.47;;;179.90;2252.80;;;;;;5084145;28;19949;-78
2022/01/04 00:34:36;;;;;;;;;;;179.90;2252.80;;;;;;5083502;28;20028;-75
2022/01/04 00:37:03;;;;;;;78.63;43.38;;;179.90;2252.80;;;;;;5085444;28;19912;-75
2022/01/04 00:39:31;;;;;;;82.32;44.83;;;179.80;2252.80;;;;;;5084757;28;20082;-75
2022/01/04 00:41:57;;;;;;;92.90;51.50;;;179.90;2252.80;;;;;;5083189;28;20064;-75
2022/01/04 00:44:23;;;;;;;;;;;179.90;2252.80;;;;;;5066171;28;20048;-75
2022/01/04 00:46:48;;;;;;;94.18;52.28;;;179.90;2252.80;;;;;;5084444;28;19958;-75
2022/01/04 00:49:17;;;;;;;;;;;179.90;2252.80;;;;;;5085630;28;20017;-75
2022/01/04 00:51:47;;;;;;;117.95;62.17;;;179.80;2252.80;;;;;;5064888;28;19905;-76
2022/01/04 00:54:13;;;;;;;108.97;62.13;;;179.70;2252.80;;;;;;5064491;28;20085;-76
2022/01/04 00:56:40;;;;;;;103.70;58.10;;;179.70;2252.80;;;;;;5064030;28;20680;-75
2022/01/04 00:59:06;;;;;;;104.38;58.95;;;179.70;2252.80;;;;;;5084497;28;20076;-77
2022/01/04 01:01:32;;;;;;;;;;;179.70;2252.80;;;;;;5067159;28;20032;-76
2022/01/04 01:03:58;;;;;;;97.50;49.33;;;179.70;2252.80;;;;;;5085051;28;19911;-75
2022/01/04 01:06:24;;;;;;;;;;;179.70;2252.80;;;;;;5083620;28;20029;-75
2022/01/04 01:08:50;;;;;;;112.88;61.97;;;179.50;2252.80;;;;;;5083974;28;19915;-75
2022/01/04 01:11:16;;;;;;;;;;;179.60;2252.80;;;;;;5066796;28;20036;-75
2022/01/04 01:13:43;;;;;;;120.53;62.85;;;179.50;2252.80;;;;;;5063910;28;20399;-75
2022/01/04 01:16:09;;;;;;;116.85;63.85;;;179.50;2252.80;;;;;;5084837;28;20023;-75
2022/01/04 01:18:35;;;;;;;131.57;69.38;;;179.50;2252.80;;;;;;5084959;28;20077;-77
2022/01/04 01:21:02;;;;;;;;;;;179.60;2252.80;;;;;;5067610;28;20017;-76
2022/01/04 01:23:29;;;;;;;107.47;58.45;;;179.60;2252.80;;;;;;5066079;28;19911;-78
2022/01/04 01:25:56;;;;;;;111.28;61.38;;;179.70;2252.80;;;;;;5084685;28;20070;-76
2022/01/04 01:28:22;;;;;;;112.65;59.55;;;179.70;2252.80;;;;;;5082693;28;20033;-76
2022/01/04 01:30:48;;;;;;;;;;;179.90;2252.80;;;;;;5085245;28;20028;-77
2022/01/04 01:33:15;;;;;;;116.20;62.10;;;179.80;2252.80;;;;;;5084207;28;19904;-76
2022/01/04 01:35:42;;;;;;;113.13;61.97;;;179.70;2252.80;;;;;;5064026;28;20036;-79
2022/01/04 01:38:08;;;;;;;123.90;68.05;;;179.60;2252.80;;;;;;5066577;28;20119;-75
2022/01/04 01:40:36;;;;;;;136.27;69.72;;;179.60;2252.80;;;;;;5064886;28;20067;-75
2022/01/04 01:43:02;;;;;;;126.20;67.47;;;179.40;2252.80;;;;;;5082040;28;20058;-78
2022/01/04 01:45:27;;;;;;;;;;;179.40;2252.80;;;;;;5064285;28;20024;-76
2022/01/04 01:47:53;;;;;;;131.02;68.10;;;179.40;2252.80;;;;;;5084428;28;19904;-78
2022/01/04 01:50:19;;;;;;;;;;;179.40;2252.80;;;;;;5066821;28;20481;-76
2022/01/04 01:52:48;;;;;;;128.15;67.30;;;179.40;2252.80;;;;;;5084275;28;20282;-75
2022/01/04 01:55:16;;;;;;;133.95;71.45;;;179.40;2252.80;;;;;;5083582;28;20026;-75
2022/01/04 01:57:42;;;;;;;121.90;65.45;;;179.50;2252.80;;;;;;5063486;28;20090;-78
2022/01/04 02:00:09;;;;;;;;;;;179.50;2252.80;;;;;;5083384;28;20025;-77
2022/01/04 02:02:35;;;;;;;120.65;61.35;;;179.50;2252.80;;;;;;5064656;28;20007;-78
2022/01/04 02:05:01;;;;;;;;;;;179.30;2252.80;;;;;;5084522;28;20020;-77
2022/01/04 02:07:27;;;;;;;124.68;60.03;;;179.40;2252.80;;;;;;5082458;28;19916;-77
2022/01/04 02:10:03;;;;;;;109.63;58.90;;;179.40;2252.80;;;;;;5083052;28;20499;-75
2022/01/04 02:12:34;;;;;;;88.65;47.08;;;179.70;2252.80;;;;;;5064571;28;20480;-75
2022/01/04 02:15:00;;;;;;;106.82;56.35;;;179.60;2252.80;;;;;;5082021;28;20081;-76
2022/01/04 02:17:27;;;;;;;94.13;52.63;;;179.80;2252.80;;;;;;5065255;28;20048;-78
2022/01/04 02:19:57;;;;;;;89.75;49.80;;;179.70;2252.80;;;;;;5067705;28;20020;-74
2022/01/04 02:22:23;;;;;;;86.40;48.80;;;180.00;2252.80;;;;;;5064003;28;20047;-77
2022/01/04 02:24:49;;;;;;;89.10;49.47;;;204.80;2252.80;;;;;;5065478;28;20020;-75
2022/01/04 02:27:15;;;;;;;;;;;180.10;2252.80;;;;;;5089200;28;20123;-78
2022/01/04 02:29:41;;;;;;;84.53;47.40;;;204.80;2252.80;;;;;;5084465;28;20421;-75
2022/01/04 02:32:07;;;;;;;89.75;48.50;;;204.90;2252.80;;;;;;5063868;28;20546;-75
2022/01/04 02:34:33;;;;;;;82.93;46.78;;;205.00;2252.80;;;;;;5082894;28;20479;-78
2022/01/04 02:36:59;;;;;;;;;;;205.10;2252.80;;;;;;5084474;28;20031;-76
2022/01/04 02:39:25;;;;;;;81.95;44.70;;;205.40;2252.80;;;;;;5066365;28;19912;-78
2022/01/04 02:41:50;;;;;;;;;;;205.30;2252.80;;;;;;5083823;28;20460;-78
2022/01/04 02:44:16;;;;;;;83.28;45.17;;;205.10;2252.80;;;;;;5083211;28;19983;-77
2022/01/04 02:46:41;;;;;;;;;;;205.00;2252.80;;;;;;5064211;28;20021;-76
2022/01/04 02:49:07;;;;;;;85.55;43.50;;;205.20;2252.80;;;;;;5083495;28;19904;-77
2022/01/04 02:51:33;;;;;;;;;;;205.30;2252.80;;;;;;5084326;28;20016;-75
2022/01/04 02:53:59;;;;;;;81.47;43.25;;;205.40;2252.80;;;;;;5083390;28;20290;-76
2022/01/04 02:56:24;;;;;;;;;;;205.60;2252.80;;;;;;5082131;28;20020;-76
2022/01/04 02:58:50;;;;;;;80.07;43.92;;;205.70;2252.80;;;;;;5064946;28;19912;-75
2022/01/04 03:01:16;;;;;;;;;;;205.60;2252.80;;;;;;5082922;28;20013;-75
2022/01/04 03:03:41;;;;;;;;;;;205.70;2252.80;;;;;;5082171;28;20396;-77
2022/01/04 03:06:07;;;;;;;;;;;205.60;2252.80;;;;;;5084577;28;19904;-75
2022/01/04 03:08:32;;;;;;;;;;;205.70;2252.80;;;;;;5081847;28;19943;-75
2022/01/04 03:10:58;;;;;;;;;;;205.70;2252.80;;;;;;5082619;28;19908;-75
2022/01/04 03:13:23;;;;;;;;;;;205.70;2252.80;;;;;;5083963;28;20271;-77
2022/01/04 03:15:49;;;;;;;;;;;205.70;2252.80;;;;;;5090400;28;19904;-77
2022/01/04 03:18:15;;;;;;;;;;;230.40;2252.80;;;;;;5088179;28;19917;-78
2022/01/04 03:20:40;;;;;;;;;;;230.40;2252.80;;;;;;5085926;28;19995;-77
2022/01/04 03:23:09;;;;;;;;;;;230.40;2252.80;;;;;;5088140;28;19914;-77
2022/01/04 03:25:35;;;;;;;;;;;230.40;2252.80;;;;;;5092348;28;19907;-75
2022/01/04 03:28:01;;;;;;;;;;;230.40;2252.80;;;;;;5087291;28;19924;-77
2022/01/04 03:30:27;;;;;;;;;;;230.40;2252.80;;;;;;5085381;28;19912;-75
2022/01/04 03:32:54;;;;;;;;;;;230.40;2252.80;;;;;;5068653;28;20363;-76
2022/01/04 03:35:20;;;;;;;;;;;205.60;2252.80;;;;;;5068813;28;20094;-76
2022/01/04 03:37:46;;;;;;;;;;;205.30;2252.80;;;;;;5088015;28;19962;-76
2022/01/04 03:40:11;;;;;;;;;;;205.20;2252.80;;;;;;5069224;28;19908;-77
2022/01/04 03:42:37;;;;;;;;;;;204.90;2252.80;;;;;;5087018;28;20356;-75
2022/01/04 03:45:03;;;;;;;;;;;180.00;2252.80;;;;;;5084839;28;19904;-76
2022/01/04 03:47:29;;;;;;;;;;;179.70;2252.80;;;;;;5090680;28;19905;-78
2022/01/04 03:49:54;;;;;;;;;;;179.60;2252.80;;;;;;5093466;28;20271;-77
2022/01/04 03:52:20;;;;;;;;;;;179.60;2252.80;;;;;;5085612;28;19914;-77
2022/01/04 03:54:45;;;;;;;;;;;179.30;2252.80;;;;;;5084578;28;19904;-77
2022/01/04 03:57:11;;;;;;;;;;;179.40;2252.80;;;;;;5086946;28;19995;-76
2022/01/04 03:59:37;;;;;;;;;;;154.50;2252.80;;;;;;5068742;28;19922;-75
2022/01/04 04:02:02;;;;;;;;;;;154.30;2252.80;;;;;;5086719;28;19911;-77
2022/01/04 04:04:28;;;;;;;;;;;154.30;2252.80;;;;;;5066703;28;20443;-76
2022/01/04 04:06:53;;;;;;;;;;;154.30;2252.80;;;;;;5086133;28;20283;-77
2022/01/04 04:09:19;;;;;;;;;;;154.10;2252.80;;;;;;5068011;28;20003;-76
2022/01/04 04:11:44;;;;;;;;;;;154.10;2252.80;;;;;;5066527;28;19924;-75
2022/01/04 04:14:10;;;;;;;;;;;154.00;2252.80;;;;;;5086619;28;20279;-76
2022/01/04 04:16:36;;;;;;;;;;;154.10;2252.80;;;;;;5085341;28;19966;-77
2022/01/04 04:19:01;;;;;;;;;;;154.10;2252.80;;;;;;5066047;28;19912;-75
2022/01/04 04:21:27;;;;;;;;;;;153.90;2252.80;;;;;;5086824;28;20425;-76
2022/01/04 04:23:53;;;;;;;;;;;153.90;2252.80;;;;;;5084712;28;20038;-77
2022/01/04 04:26:18;;;;;;;;;;;153.90;2252.80;;;;;;5066626;28;19904;-75
2022/01/04 04:28:44;;;;;;;;;;;154.00;2252.80;;;;;;5084106;28;19916;-78
2022/01/04 04:31:10;;;;;;;;;;;154.00;2252.80;;;;;;5084140;28;19911;-75
2022/01/04 04:33:35;;;;;;;;;;;153.90;2252.80;;;;;;5085817;28;19989;-77
2022/01/04 04:36:01;;;;;;;;;;;153.90;2252.80;;;;;;5083674;28;20240;-75
2022/01/04 04:38:26;;;;;;;;;;;154.00;2252.80;;;;;;5085972;28;19989;-76
2022/01/04 04:40:52;;;;;;;;;;;154.00;2252.80;;;;;;5084212;28;19977;-78
2022/01/04 04:43:18;;;;;;;;;;;154.00;2252.80;;;;;;5085337;28;20436;-76
2022/01/04 04:45:43;;;;;;;;;;;153.90;2252.80;;;;;;5085737;28;19904;-77
2022/01/04 04:48:09;;;;;;;;;;;153.90;2252.80;;;;;;5084084;28;19904;-77
2022/01/04 04:50:34;;;;;;;;;;;153.80;2252.80;;;;;;5086459;28;20364;-75
2022/01/04 04:53:00;;;;;;;;;;;153.90;2252.80;;;;;;5084148;28;19905;-76
2022/01/04 04:55:26;;;;;;;;;;;154.10;2252.80;;;;;;5083856;28;19904;-76
2022/01/04 04:57:52;;;;;;;;;;;154.10;2252.80;;;;;;5085637;28;20012;-76
2022/01/04 05:00:17;;;;;;;;;;;154.20;2252.80;;;;;;5066369;28;19912;-76
2022/01/04 05:02:43;;;;;;;;;;;154.20;2252.80;;;;;;5084379;28;19904;-75
2022/01/04 05:05:09;;;;;;;;;;;154.20;2252.80;;;;;;5067374;28;19911;-76
2022/01/04 05:07:35;;;;;;;;;;;154.20;2252.80;;;;;;5067485;28;20363;-75
2022/01/04 05:10:04;;;;;;;;;;;154.40;2252.80;;;;;;5084614;28;19909;-74
2022/01/04 05:12:30;;;;;;;;;;;154.30;2252.80;;;;;;5083385;28;19989;-76
2022/01/04 05:14:56;;;;;;;;;;;154.30;2252.80;;;;;;5066409;28;20360;-75
2022/01/04 05:17:21;;;;;;;;;;;154.40;2252.80;;;;;;5084467;28;19912;-77
2022/01/04 05:19:47;;;;;;;;;;;154.20;2252.80;;;;;;5085977;28;19916;-76
2022/01/04 05:22:12;;;;;;;;;;;154.20;2252.80;;;;;;5065351;28;19959;-77
2022/01/04 05:24:38;;;;;;;;;;;154.10;2252.80;;;;;;5066453;28;19911;-75
2022/01/04 05:27:04;;;;;;;;;;;154.00;2252.80;;;;;;5087334;28;19916;-75
2022/01/04 05:29:29;;;;;;;;;;;154.00;2252.80;;;;;;5091338;28;19996;-76
2022/01/04 05:31:55;;;;;;;;;;;153.90;2252.80;;;;;;5067056;28;20356;-77
2022/01/04 05:34:21;;;;;;;;;;;153.80;2252.80;;;;;;5064428;28;19910;-77
2022/01/04 05:36:46;;;;;;;;;;;153.80;2252.80;;;;;;5064171;28;19908;-78
2022/01/04 05:39:12;;;;;;;;;;;153.90;2252.80;;;;;;5084320;28;19914;-75
2022/01/04 05:41:37;;;;;;;;;;;153.90;2252.80;;;;;;5065416;28;20316;-76
2022/01/04 05:44:03;;;;;;;;;;;153.80;2252.80;;;;;;5065621;28;19904;-78
2022/01/04 05:46:29;;;;;;;;;;;153.80;2252.80;;;;;;5085231;28;20343;-77
2022/01/04 05:48:54;;;;;;;;;;;153.80;2252.80;;;;;;5087766;28;20272;-77
2022/01/04 05:51:20;;;;;;;;;;;153.70;2252.80;;;;;;5065447;28;19908;-78
2022/01/04 05:53:45;;;;;;;;;;;153.70;2252.80;;;;;;5083468;28;19914;-75
2022/01/04 05:56:11;;;;;;;;;;;153.60;2252.80;;;;;;5066515;28;20302;-79
2022/01/04 05:58:37;;;;;;;;;;;153.60;2252.80;;;;;;5086006;28;20008;-75
2022/01/04 06:01:02;;;;;;;;;;;128.90;2252.80;;;;;;5073436;28;20352;-79
2022/01/04 06:03:28;;;;;;;;;;;153.60;2252.80;;;;;;5065308;28;20274;-76
2022/01/04 06:05:54;;;;;;;;;;;153.60;2252.80;;;;;;5093566;28;19950;-77
2022/01/04 06:08:21;;;;;;;;;;;153.60;2252.80;;;;;;5075497;28;20367;-77
2022/01/04 06:10:51;;;;;;;;;;;128.90;2252.80;;;;;;5064994;28;19953;-78
2022/01/04 06:16:00;;;;;;;;;;;153.60;2252.80;;;;;;5083339;28;19911;-76
2022/01/04 06:18:26;;;;;;;;;;;153.70;2252.80;;;;;;5082956;28;19916;-77
2022/01/04 06:20:52;;;;;;;;;;;153.80;2252.80;;;;;;5084281;28;19911;-77
2022/01/04 06:23:17;;;;;;;;;;;153.90;2252.80;;;;;;5084138;28;19904;-75
2022/01/04 06:25:43;;;;;;;;;;;154.00;2252.80;;;;;;5083337;28;19904;-75
2022/01/04 06:28:08;;;;;;;;;;;154.10;2252.80;;;;;;5082611;28;19916;-75
2022/01/04 06:30:34;;;;;;;;;;;154.10;2252.80;;;;;;5084788;28;19911;-79
2022/01/04 06:33:00;;;;;;;;;;;154.20;2252.80;;;;;;5084153;28;20287;-75
2022/01/04 06:35:27;;;;;;;;;;;154.40;2252.80;;;;;;5064634;28;19932;-75
2022/01/04 06:37:53;;;;;;;;;;;154.50;2252.80;;;;;;5082046;28;19977;-76
2022/01/04 06:40:18;;;;;;;;;;;154.30;2252.80;;;;;;5092452;28;19908;-75
2022/01/04 06:42:44;;;;;;;;;;;154.10;2252.80;;;;;;5065195;28;19908;-75
2022/01/04 06:45:11;;;;;;;;;;;153.90;2252.80;;;;;;5064282;28;19904;-75
2022/01/04 06:47:37;;;;;;;;;;;153.80;2252.80;;;;;;5084029;28;19926;-76
2022/01/04 06:50:03;;;;;;;;;;;153.80;2252.80;;;;;;5083771;28;20340;-77
2022/01/04 06:52:28;;;;;;;;;;;153.90;2252.80;;;;;;5067868;28;20379;-75
2022/01/04 06:54:54;;;;;;;;;;;154.00;2252.80;;;;;;5086121;28;19995;-76
2022/01/04 06:57:20;;;;;;;;;;;153.80;2252.80;;;;;;5087850;28;20334;-75
2022/01/04 06:59:45;;;;;;;;;;;153.80;2252.80;;;;;;5086942;28;19974;-75
2022/01/04 07:02:11;;;;;;;;;;;154.00;2252.80;;;;;;5089054;28;19905;-77
2022/01/04 07:04:37;;;;;;;;;;;154.10;2252.80;;;;;;5088190;28;19908;-76
2022/01/04 07:07:02;;;;;;;;;;;154.10;2252.80;;;;;;5067943;28;19909;-75
2022/01/04 07:09:28;;;;;;;;;;;154.10;2252.80;;;;;;5086572;28;20015;-79
2022/01/04 07:11:54;;;;;;;;;;;154.10;2252.80;;;;;;5069818;28;19943;-77
2022/01/04 07:14:19;;;;;;;;;;;154.10;2252.80;;;;;;5088668;28;19912;-78
2022/01/04 07:16:45;;;;;;;;;;;154.10;2252.80;;;;;;5096869;28;19904;-78
2022/01/04 07:19:10;;;;;;;;;;;154.00;2252.80;;;;;;5073000;28;20007;-77
2022/01/04 07:21:36;;;;;;;;;;;154.00;2252.80;;;;;;5070005;28;19904;-80
2022/01/04 07:24:03;;;;;;;;;;;154.10;2252.80;;;;;;5086311;28;19915;-75
2022/01/04 07:26:29;;;;;;;;;;;154.00;2252.80;;;;;;5075857;28;19904;-80
2022/01/04 07:28:55;;;;;;;;;;;154.00;2252.80;;;;;;5093977;28;19999;-78
2022/01/04 07:31:21;;;;;;;;;;;154.00;2252.80;;;;;;5067956;28;19962;-79
2022/01/04 07:33:46;;;;;;;;;;;154.30;2252.80;;;;;;5067958;28;19912;-77
2022/01/04 07:36:13;;;;;;;;;;;154.40;2252.80;;;;;;5085677;28;20274;-77
2022/01/04 07:38:38;;;;;;;;;;;154.40;2252.80;;;;;;5069218;28;20010;-78
2022/01/04 07:41:04;;;;;;;;;;;154.40;2252.80;;;;;;5072145;28;19946;-77
2022/01/04 07:43:30;;;;;;;;;;;154.50;2252.80;;;;;;5074618;28;20436;-76
2022/01/04 07:45:56;;;;;;;;;;;154.50;2252.80;;;;;;5087858;28;20394;-79
2022/01/04 07:48:22;;;;;;;;;;;154.30;2252.80;;;;;;5085802;28;19905;-79
2022/01/04 07:50:47;;;;;;;;;;;154.20;2252.80;;;;;;5086229;28;19915;-76
2022/01/04 07:53:13;;;;;;;;;;;154.40;2252.80;;;;;;5084777;28;20259;-81
2022/01/04 07:55:38;;;;;;;;;;;154.50;2252.80;;;;;;5067604;28;20046;-82
2022/01/04 07:58:05;;;;;;;;;;;154.50;2252.80;;;;;;5070005;28;19912;-78
2022/01/04 08:00:30;;;;;;;;;;;179.30;2252.80;;;;;;5069823;28;19985;-78
2022/01/04 08:02:56;;;;;;;;;;;179.50;2252.80;;;;;;5087246;28;19963;-77
2022/01/04 08:05:22;;;;;;;;;;;179.60;2252.80;;;;;;5081780;28;19912;-78
2022/01/04 08:07:49;;;;;;;;;;;179.60;2252.80;;;;;;5058155;28;19912;-76
2022/01/04 08:10:14;;;;;;;;;;;179.40;2252.80;;;;;;5076047;28;20281;-76
2022/01/04 08:12:40;;;;;;;;;;;179.60;2252.80;;;;;;5076149;28;19904;-79
2022/01/04 08:15:07;;;;;;;;;;;179.70;2252.80;;;;;;5058092;28;19904;-77
2022/01/04 08:17:33;;;;;;;;;;;179.70;2252.80;;;;;;5075923;28;20323;-77
2022/01/04 08:19:59;;;;;;;;;;;179.80;2252.80;;;;;;5057788;28;19958;-77
2022/01/04 08:22:24;;;;;;;;;;;179.90;2252.80;;;;;;5058358;28;19957;-76
2022/01/04 08:24:50;;;;;;;;;;;180.10;2252.80;;;;;;5058164;28;19904;-76
2022/01/04 08:27:16;;;;;;;;;;;180.00;2252.80;;;;;;5057877;28;19970;-76
2022/01/04 08:29:42;;;;;;;;;;;180.10;2252.80;;;;;;5075809;28;19911;-78
2022/01/04 08:32:08;;;;;;;;;;;180.10;2252.80;;;;;;5057857;28;19904;-77
2022/01/04 08:34:34;;;;;;;;;;;205.10;2252.80;;;;;;5075818;28;20260;-77
2022/01/04 08:36:59;;;;;;;;;;;204.90;2252.80;;;;;;5057637;28;19971;-78
2022/01/04 08:39:28;;;;;;;;;;;205.00;2252.80;;;;;;5075420;28;19984;-78
2022/01/04 08:41:55;;;;;;;;;;;205.10;2252.80;;;;;;5057829;28;19908;-79
2022/01/04 08:44:22;;;;;;;;;;;205.10;2252.80;;;;;;5075364;28;20352;-75
2022/01/04 08:46:48;;;;;;;;;;;205.20;2252.80;;;;;;5057336;28;19995;-75
2022/01/04 08:49:13;;;;;;;;;;;205.40;2252.80;;;;;;5077632;28;19943;-77
2022/01/04 08:51:39;;;;;;;;;;;205.50;2252.80;;;;;;5095595;28;19904;-75
2022/01/04 08:54:05;;;;;;;;;;;205.60;2252.80;;;;;;5095706;28;19904;-76
2022/01/04 08:56:31;;;;;;;;;;;205.70;2252.80;;;;;;5095437;28;19904;-76
2022/01/04 08:58:57;;;;;;;;;;;205.70;2252.80;;;;;;5077488;28;19923;-77
2022/01/04 09:01:22;;;;;;;;;;;230.40;2252.80;;;;;;5077264;28;19953;-79
2022/01/04 09:03:48;;;;;;;;;;;205.60;2252.80;;;;;;5095570;28;19904;-81
2022/01/04 09:06:14;;;;;;;;;;;205.60;2252.80;;;;;;5077165;28;20364;-79
2022/01/04 09:08:40;;;;;;;;;;;230.40;2252.80;;;;;;5077224;28;19908;-79
2022/01/04 09:11:05;;;;;;;;;;;230.50;2252.80;;;;;;5077166;28;19914;-80
2022/01/04 09:13:43;;;;;;;;;;;230.40;2252.80;;;;;;5077209;28;20025;-80
2022/01/04 09:18:43;;;;;;;;;;;230.50;2252.80;;;;;;5094701;28;19904;-76
2022/01/04 09:19:03;;;;;;;;;;;230.50;2252.80;;;;;;5094753;28;19972;-77
2022/01/04 09:21:29;;;;;;;;;;;230.60;2252.80;;;;;;5077123;28;20398;-76
2022/01/04 09:23:55;;;;;;;;;;;230.40;2252.80;;;;;;5095219;28;19904;-77
2022/01/04 09:26:21;;;;;;;;;;;230.50;2252.80;;;;;;5095372;28;20469;-76
2022/01/04 09:28:47;;;;;;;;;;;230.50;2252.80;;;;;;5076570;28;20379;-78
2022/01/04 09:31:13;;;;;;;;;;;230.50;2252.80;;;;;;5077029;28;19995;-85
2022/01/04 09:33:39;;;;;;;;;;;230.70;2252.80;;;;;;5076636;28;19904;-76
2022/01/04 09:36:05;;;;;;;;;;;230.70;2252.80;;;;;;5076847;28;19904;-78
2022/01/04 09:38:31;;;;;;;;;;;230.80;2252.80;;;;;;5094640;28;19922;-77
2022/01/04 09:40:57;;;;;;;;;;;231.00;2252.80;;;;;;5094882;28;19978;-81
2022/01/04 09:43:23;;;;;;;;;;;231.20;2252.80;;;;;;5094853;28;19904;-79
2022/01/04 09:45:49;;;;;;;;;;;231.00;2252.80;;;;;;5087269;28;19909;-80
2022/01/04 09:48:14;;;;;;;;;;;231.10;2252.80;;;;;;5084696;28;19912;-82
2022/01/04 09:50:40;;;;;;;;;;;231.10;2252.80;;;;;;5085869;28;19912;-75
2022/01/04 09:53:09;;;;;;;;;;;231.20;2252.80;;;;;;5084755;28;19911;-75
2022/01/04 09:55:38;;;;;;;;;;;231.20;2252.80;;;;;;5084382;28;19987;-75
2022/01/04 09:58:04;;;;;;;;;;;256.20;2252.80;;;;;;5082555;28;20008;-79
2022/01/04 10:00:30;;;;;;;;;;;256.20;2252.80;;;;;;5083010;28;19904;-83
2022/01/04 10:03:16;;;;;;;;;;;256.20;2252.80;;;;;;5086143;28;19912;-76
2022/01/04 10:05:42;;;;;;;;;;;256.30;2252.80;;;;;;5073243;28;19912;-78
2022/01/04 10:08:08;;;;;;;;;;;256.50;2252.80;;;;;;5073813;28;20003;-76
2022/01/04 10:10:35;;;;;;;;;;;256.50;2252.80;;;;;;5074108;28;20349;-78
2022/01/04 10:13:03;;;;;;;;;;;256.40;2252.80;;;;;;5074031;28;19950;-79
2022/01/04 10:15:34;;;;;;;;;;;281.60;2278.40;;;;;;5056077;28;19905;-79
2022/01/04 10:18:20;;;;;;;;;;;281.70;2278.40;;;;;;5055987;28;19974;-77
2022/01/04 10:20:48;;;;;;;;;;;282.00;2278.40;;;;;;5073874;28;19908;-80
2022/01/04 10:23:14;;;;;;;;;;;281.90;2278.40;;;;;;5078121;28;19904;-78
2022/01/04 10:25:40;;;;;;;;;;;281.90;2278.40;;;;;;5063958;28;20279;-77
2022/01/04 10:28:05;;;;;;;;;;;282.00;2278.40;;;;;;5090363;28;20291;-78
2022/01/04 10:30:32;;;;;;;;;;;282.20;2278.40;;;;;;5067665;28;19911;-78
2022/01/04 10:32:58;;;;;;;;;;;282.20;2278.40;;;;;;5083982;28;19947;-80
2022/01/04 10:35:24;;;;;;;;;;;282.30;2278.40;;;;;;5064206;28;19911;-79
2022/01/04 10:37:49;;;;;;;;;;;282.30;2278.40;;;;;;5085340;28;20368;-79
2022/01/04 10:40:16;;;;;;;;;;;282.20;2278.40;;;;;;5066774;28;20744;-80
2022/01/04 10:42:41;;;;;;;;;;;282.20;2278.40;;;;;;5066201;28;19909;-80
2022/01/04 10:45:21;;;;;;;;;;;282.30;2278.40;;;;;;5064680;28;19908;-77
2022/01/04 10:47:47;;;;;;;;;;;282.30;2278.40;;;;;;5066828;28;19931;-78
2022/01/04 10:50:13;;;;;;;;;;;307.50;2304.00;;;;;;5085342;28;19930;-76
2022/01/04 10:52:38;;;;;;;;;;;307.50;2304.00;;;;;;5093602;28;19912;-75
2022/01/04 10:55:13;;;;;;;;;;;307.70;2304.00;;;;;;5093488;28;20348;-76
2022/01/04 10:57:40;;;;;;;;;;;307.90;2304.00;;;;;;5074777;28;20384;-75
2022/01/04 11:00:12;;;;;;;;;;;307.90;2304.00;;;;;;5086593;28;20037;-80
2022/01/04 11:02:38;;;;;;;;;;;308.00;2304.00;;;;;;5066200;28;19946;-77
2022/01/04 11:05:14;;;;;;;;;;;332.90;2329.60;;;;;;5062710;28;20351;-76
2022/01/04 11:07:55;;;;;;;;;;;333.00;2329.60;;;;;;5076090;28;19999;-74
2022/01/04 11:10:21;;;;;;;;;;;333.30;2329.60;;;;;;5062378;28;19912;-75
2022/01/04 11:12:47;;;;;;;;;;;333.00;2329.60;;;;;;5064074;28;20477;-75
2022/01/04 11:15:13;;;;;;;;;;;332.90;2329.60;;;;;;5055743;28;19909;-75
2022/01/04 11:17:39;;;;;;;;;;;332.80;2329.60;;;;;;5055715;28;19958;-75
2022/01/04 11:20:05;;;;;;;;;;;332.90;2329.60;;;;;;5073044;28;19905;-78
2022/01/04 11:22:31;;;;;;;;;;;333.20;2329.60;;;;;;5074003;28;19940;-75
2022/01/04 11:24:57;;;;;;;;;;;333.40;2329.60;;;;;;5074001;28;19908;-80
2022/01/04 11:27:23;;;;;;;;;;;333.50;2329.60;;;;;;5060277;28;19979;-77
2022/01/04 11:29:49;;;;;;;;;;;333.50;2329.60;;;;;;5060754;28;20375;-76
2022/01/04 11:32:17;;;;;;;;;;;333.20;2329.60;;;;;;5065225;28;19911;-75
2022/01/04 11:34:50;;;;;;;;;;;333.50;2329.60;;;;;;5081627;28;19909;-77
2022/01/04 11:37:17;;;;;;;;;;;333.40;2329.60;;;;;;5072528;28;19904;-79
2022/01/04 11:39:43;;;;;;;;;;;333.40;2329.60;;;;;;5081705;28;19930;-81
2022/01/04 11:42:10;;;;;;;;;;;333.60;2329.60;;;;;;5096193;28;20359;-78
2022/01/04 11:44:46;;;;;;;;;;;333.50;2329.60;;;;;;5090925;28;19904;-80
2022/01/04 11:47:15;;;;;;;;;;;333.60;2329.60;;;;;;5065212;28;19965;-76
2022/01/04 11:50:00;;;;;;;;;;;333.70;2329.60;;;;;;5069423;28;19908;-76
2022/01/04 11:52:37;;;;;;;;;;;358.50;2329.60;;;;;;5092870;28;19908;-78
2022/01/04 11:55:23;;;;;;;;;;;333.70;2329.60;;;;;;5060307;28;19904;-79
2022/01/04 11:57:52;;;;;;;;;;;358.50;2329.60;;;;;;5066823;28;19961;-76
2022/01/04 12:00:28;;;;;;;;;;;358.50;2329.60;;;;;;5085994;28;19904;-78
2022/01/04 12:03:21;;;;;;;;;;;358.60;2329.60;;;;;;5055942;28;20011;-80
2022/01/04 12:05:55;;;;;;;;;;;358.80;2329.60;;;;;;5073169;28;20018;-81
2022/01/04 12:08:41;;;;;;;;;;;358.60;2329.60;;;;;;5063744;28;19916;-78
2022/01/04 12:11:19;;;;;;;;;;;358.40;2329.60;;;;;;5057905;28;19917;-76
2022/01/04 12:13:46;;;;;;;;;;;358.50;2329.60;;;;;;5075231;28;20374;-75
2022/01/04 12:16:12;;;;;;;;;;;358.60;2329.60;;;;;;5057127;28;19904;-75
2022/01/04 12:18:38;;;;;;;;;;;358.50;2329.60;;;;;;5057314;28;19919;-75
2022/01/04 12:21:25;;;;;;;;;;;358.40;2329.60;;;;;;5058122;28;19904;-77
2022/01/04 12:23:51;;;;;;;;;;;333.70;2329.60;;;;;;5075945;28;19904;-76
2022/01/04 12:26:17;;;;;;;;;;;333.70;2329.60;;;;;;5074503;28;19916;-76
2022/01/04 12:28:44;;;;;;;;;;;333.60;2329.60;;;;;;5046182;28;19917;-79
2022/01/04 12:31:20;;;;;;;;;;;333.60;2329.60;;;;;;5044298;28;20344;-79
2022/01/04 12:33:56;;;;;;;;;;;333.60;2329.60;;;;;;5026551;28;19916;-79
2022/01/04 12:36:25;;;;;;;;;;;333.70;2329.60;;;;;;5045391;28;19967;-77
2022/01/04 12:38:51;;;;;;;;;;;333.70;2329.60;;;;;;5044819;28;19917;-79
2022/01/04 12:41:17;;;;;;;;;;;333.70;2329.60;;;;;;5046900;28;19916;-75
2022/01/04 12:43:46;;;;;;;;;;;333.70;2329.60;;;;;;5017199;28;19905;-80
2022/01/04 12:46:12;;;;;;;;;;;358.40;2329.60;;;;;;5017316;28;19967;-78
2022/01/04 12:48:48;;;;;;;;;;;358.60;2329.60;;;;;;5018163;28;19909;-80
2022/01/04 12:51:32;;;;;;;;;;;358.50;2329.60;;;;;;5037332;28;19928;-76
2022/01/04 12:54:03;;;;;;;;;;;333.70;2329.60;;;;;;5037222;28;19914;-75
2022/01/04 12:56:29;;;;;;;;;;;358.40;2329.60;;;;;;5036967;28;19905;-76
2022/01/04 12:58:55;;;;;;;;;;;333.70;2329.60;;;;;;5055024;28;19959;-75
2022/01/04 13:01:23;;;;;;;;;;;333.60;2329.60;;;;;;5055225;28;19987;-75
2022/01/04 13:03:49;;;;;;;;;;;333.60;2329.60;;;;;;5054872;28;19905;-81
2022/01/04 13:06:16;;;;;;;;;;;333.60;2329.60;;;;;;5049752;28;19905;-79
2022/01/04 13:08:50;;;;;;;;;;;333.50;2329.60;;;;;;5035407;28;19962;-76
2022/01/04 13:11:15;;;;;;;;;;;333.50;2329.60;;;;;;5053775;28;20427;-78
2022/01/04 13:13:41;;;;;;;;;;;333.40;2329.60;;;;;;5054765;28;19990;-78
2022/01/04 13:16:22;;;;;;;;;;;333.40;2329.60;;;;;;5036844;28;19908;-76
2022/01/04 13:18:48;;;;;;;;;;;333.40;2329.60;;;;;;5036149;28;19920;-78
2022/01/04 13:21:14;;;;;;;;;;;333.30;2329.60;;;;;;5036910;28;19911;-80
2022/01/04 13:23:40;;;;;;;;;;;333.20;2329.60;;;;;;5036649;28;20360;-77
2022/01/04 13:26:06;;;;;;;;;;;333.20;2329.60;;;;;;5035925;28;19912;-77